Time;durP1;ratioP1;P1;durP2;ratioP2;P2;SDS_P1;SDS_P2;PMS_P1;PMS_P2;Temp;Humidity;BMP_temperature;BMP_pressure;BME280_temperature;BME280_humidity;BME280_pressure;Samples;Min_cycle;Max_cycle;Signal;HPM_P1;HPM_P2
2021/07/18 00:00:13;;;;;;;31.30;25.92;;;;;;;;;;5009063;28;19924;-82
2021/07/18 00:02:39;;;;;;;25.45;17.80;;;;;;;;;;4981629;28;20047;-83
2021/07/18 00:05:06;;;;;;;17.75;13.35;;;;;;;;;;4981712;28;20038;-79
2021/07/18 00:07:35;;;;;;;20.42;13.52;;;;;;;;;;4984673;28;20049;-82
2021/07/18 00:10:04;;;;;;;23.05;14.43;;;;;;;;;;5011757;28;20044;-84
2021/07/18 00:12:30;;;;;;;22.60;15.65;;;;;;;;;;4982724;28;20500;-82
2021/07/18 00:14:57;;;;;;;26.25;19.88;;;;;;;;;;4981527;28;20039;-85
2021/07/18 00:17:25;;;;;;;25.38;18.13;;;;;;;;;;4983407;28;20404;-89
2021/07/18 00:19:51;;;;;;;26.05;17.05;;;;;;;;;;4985745;28;20073;-86
2021/07/18 00:22:18;;;;;;;23.23;15.02;;;;;;;;;;5018352;28;20048;-90
2021/07/18 00:24:44;;;;;;;25.88;16.75;;;;;;;;;;5003055;28;20096;-91
2021/07/18 00:27:11;;;;;;;26.00;15.35;;;;;;;;;;5005190;28;20037;-92
2021/07/18 00:29:40;;;;;;;25.00;16.13;;;;;;;;;;5017497;28;20069;-85
2021/07/18 00:32:07;;;;;;;24.08;14.88;;;;;;;;;;5032993;28;20065;-85
2021/07/18 00:34:35;;;;;;;31.17;17.15;;;;;;;;;;5010970;28;20048;-86
2021/07/18 00:37:01;;;;;;;26.58;15.40;;;;;;;;;;5006518;28;20041;-84
2021/07/18 00:39:28;;;;;;;33.92;18.35;;;;;;;;;;5020936;28;20045;-83
2021/07/18 00:41:54;;;;;;;28.80;17.25;;;;;;;;;;5025253;28;20049;-86
2021/07/18 00:44:21;;;;;;;34.65;20.00;;;;;;;;;;5025594;28;20069;-82
2021/07/18 00:46:50;;;;;;;29.05;19.23;;;;;;;;;;5012780;28;20042;-84
2021/07/18 00:49:17;;;;;;;28.88;18.13;;;;;;;;;;5009920;28;20512;-82
2021/07/18 00:51:44;;;;;;;27.05;17.90;;;;;;;;;;5014382;28;20527;-83
2021/07/18 00:54:10;;;;;;;27.48;17.83;;;;;;;;;;5028219;28;20624;-84
2021/07/18 00:56:39;;;;;;;22.80;14.63;;;;;;;;;;4980265;28;20052;-83
2021/07/18 00:59:06;;;;;;;22.15;14.23;;;;;;;;;;5004502;28;20045;-86
2021/07/18 01:01:34;;;;;;;23.92;16.02;;;;;;;;;;4988422;28;20165;-86
2021/07/18 01:04:00;;;;;;;24.55;15.98;;;;;;;;;;5020271;28;20109;-86
2021/07/18 01:06:27;;;;;;;19.75;14.23;;;;;;;;;;5002969;28;20500;-87
2021/07/18 01:08:53;;;;;;;23.13;14.18;;;;;;;;;;5005951;28;20053;-85
2021/07/18 01:11:23;;;;;;;32.42;15.98;;;;;;;;;;5013259;28;20090;-87
2021/07/18 01:13:50;;;;;;;24.50;14.63;;;;;;;;;;5009447;28;20123;-84
2021/07/18 01:16:17;;;;;;;19.25;12.80;;;;;;;;;;5014239;28;20033;-89
2021/07/18 01:18:44;;;;;;;17.75;11.48;;;;;;;;;;5031004;28;20044;-86
2021/07/18 01:21:11;;;;;;;18.58;11.35;;;;;;;;;;5011839;28;20045;-81
2021/07/18 01:23:39;;;;;;;27.80;14.68;;;;;;;;;;5029380;28;20034;-86
2021/07/18 01:26:07;;;;;;;19.70;11.40;;;;;;;;;;5003724;28;20076;-85
2021/07/18 01:28:33;;;;;;;15.07;10.43;;;;;;;;;;5023563;28;20041;-83
2021/07/18 01:31:00;;;;;;;14.45;9.20;;;;;;;;;;5007331;28;20041;-83
2021/07/18 01:33:27;;;;;;;16.17;8.73;;;;;;;;;;5002869;28;20053;-88
2021/07/18 01:35:53;;;;;;;33.58;19.13;;;;;;;;;;5029629;28;20050;-85
2021/07/18 01:38:20;;;;;;;17.48;9.40;;;;;;;;;;5003554;28;20067;-87
2021/07/18 01:40:46;;;;;;;12.18;6.68;;;;;;;;;;5025795;28;20049;-89
2021/07/18 01:43:13;;;;;;;12.27;6.93;;;;;;;;;;5050010;28;20044;-87
2021/07/18 01:45:39;;;;;;;19.50;11.80;;;;;;;;;;5040898;28;20080;-86
2021/07/18 01:48:11;;;;;;;15.95;8.40;;;;;;;;;;5030595;28;24829;-86
2021/07/18 01:50:38;;;;;;;14.32;7.65;;;;;;;;;;5019530;28;20045;-87
2021/07/18 01:53:09;;;;;;;10.77;6.90;;;;;;;;;;5046670;28;20053;-89
2021/07/18 01:55:36;;;;;;;13.73;8.63;;;;;;;;;;5020452;28;20050;-82
2021/07/18 01:58:03;;;;;;;12.23;7.57;;;;;;;;;;5026955;28;20064;-88
2021/07/18 02:00:30;;;;;;;12.57;8.13;;;;;;;;;;5018138;28;20473;-87
2021/07/18 02:02:57;;;;;;;15.07;7.35;;;;;;;;;;5026492;28;20408;-81
2021/07/18 02:05:25;;;;;;;10.00;6.25;;;;;;;;;;5022528;28;20111;-88
2021/07/18 02:07:53;;;;;;;14.35;8.82;;;;;;;;;;5014049;28;20044;-84
2021/07/18 02:10:22;;;;;;;13.35;7.93;;;;;;;;;;4998781;28;20052;-84
2021/07/18 02:12:49;;;;;;;20.77;11.88;;;;;;;;;;5012207;28;20132;-84
2021/07/18 02:15:19;;;;;;;20.40;11.95;;;;;;;;;;5009394;28;20046;-85
2021/07/18 02:17:47;;;;;;;16.95;10.52;;;;;;;;;;5003535;28;20052;-83
2021/07/18 02:20:18;;;;;;;17.83;9.95;;;;;;;;;;5010668;28;20068;-84
2021/07/18 02:22:52;;;;;;;8.45;5.50;;;;;;;;;;5019765;28;20044;-85
2021/07/18 02:25:21;;;;;;;8.55;5.60;;;;;;;;;;5003151;28;20085;-83
2021/07/18 02:27:48;;;;;;;13.82;9.05;;;;;;;;;;4984656;28;20041;-83
2021/07/18 02:30:18;;;;;;;10.38;7.22;;;;;;;;;;5016131;28;20048;-86
2021/07/18 02:32:45;;;;;;;17.73;10.90;;;;;;;;;;5026709;28;20065;-85
2021/07/18 02:35:17;;;;;;;12.98;7.28;;;;;;;;;;5007116;28;20041;-84
2021/07/18 02:37:45;;;;;;;10.27;5.13;;;;;;;;;;5002476;28;20073;-86
2021/07/18 02:40:12;;;;;;;;;;;;;;;;;;5003165;28;20061;-85
2021/07/18 02:42:39;;;;;;;6.00;3.72;;;;;;;;;;4996327;28;19918;-79
2021/07/18 02:45:13;;;;;;;7.07;4.72;;;;;;;;;;5033372;28;20563;-84
2021/07/18 02:47:42;;;;;;;3.65;2.30;;;;;;;;;;4997581;28;20060;-80
2021/07/18 02:50:13;;;;;;;5.43;2.20;;;;;;;;;;4990017;28;20101;-82
2021/07/18 02:52:39;;;;;;;5.03;2.75;;;;;;;;;;5011025;28;20045;-85
2021/07/18 02:55:07;;;;;;;6.18;2.80;;;;;;;;;;4998083;28;20486;-85
2021/07/18 02:57:33;;;;;;;6.47;3.15;;;;;;;;;;4990710;28;20034;-81
2021/07/18 03:00:00;;;;;;;7.88;3.30;;;;;;;;;;5023541;28;20120;-85
2021/07/18 03:02:29;;;;;;;6.32;3.30;;;;;;;;;;5003421;28;20041;-81
2021/07/18 03:04:56;;;;;;;13.07;8.10;;;;;;;;;;5007711;28;20132;-85
2021/07/18 03:07:22;;;;;;;8.70;4.40;;;;;;;;;;4982593;28;20038;-84
2021/07/18 03:09:49;;;;;;;18.35;8.20;;;;;;;;;;4977068;28;25427;-84
2021/07/18 03:12:15;;;;;;;10.02;5.35;;;;;;;;;;4980631;28;20494;-85
2021/07/18 03:14:41;;;;;;;8.48;4.43;;;;;;;;;;4982495;28;20039;-85
2021/07/18 03:17:10;;;;;;;6.03;3.58;;;;;;;;;;4979496;28;20066;-84
2021/07/18 03:19:36;;;;;;;10.30;2.85;;;;;;;;;;4989325;28;20487;-85
2021/07/18 03:22:03;;;;;;;6.00;2.92;;;;;;;;;;5013682;28;20041;-84
2021/07/18 03:24:30;;;;;;;6.18;3.53;;;;;;;;;;5012261;28;20045;-81
2021/07/18 03:26:57;;;;;;;7.20;3.50;;;;;;;;;;5031622;28;20106;-84
2021/07/18 03:29:24;;;;;;;5.47;2.80;;;;;;;;;;5029503;28;20565;-82
2021/07/18 03:31:51;;;;;;;4.32;2.10;;;;;;;;;;5014668;28;20358;-88
2021/07/18 03:34:17;;;;;;;4.38;2.30;;;;;;;;;;5014957;28;20099;-89
2021/07/18 03:36:44;;;;;;;3.65;2.28;;;;;;;;;;5017536;28;20145;-82
2021/07/18 03:39:10;;;;;;;3.78;2.15;;;;;;;;;;4985735;28;20048;-88
2021/07/18 03:41:37;;;;;;;4.28;2.55;;;;;;;;;;5012578;28;20046;-83
2021/07/18 03:44:06;;;;;;;4.55;1.77;;;;;;;;;;5021818;28;20100;-83
2021/07/18 03:46:33;;;;;;;;;;;;;;;;;;5013515;28;20088;-87
2021/07/18 03:48:59;;;;;;;5.28;2.17;;;;;;;;;;5029733;28;19956;-87
2021/07/18 03:51:27;;;;;;;3.28;2.20;;;;;;;;;;5030535;28;20491;-79
2021/07/18 03:53:53;;;;;;;4.80;2.42;;;;;;;;;;5020921;28;20038;-86
2021/07/18 03:56:22;;;;;;;4.20;2.40;;;;;;;;;;5004488;28;20120;-85
2021/07/18 03:58:52;;;;;;;5.35;2.90;;;;;;;;;;5022261;28;20041;-86
2021/07/18 04:01:19;;;;;;;4.10;2.10;;;;;;;;;;5012454;28;20052;-84
2021/07/18 04:03:49;;;;;;;5.70;2.47;;;;;;;;;;5031648;28;20082;-86
2021/07/18 04:06:16;;;;;;;6.38;2.80;;;;;;;;;;5019069;28;20041;-87
2021/07/18 04:08:43;;;;;;;6.25;2.25;;;;;;;;;;5022090;28;20042;-87
2021/07/18 04:11:10;;;;;;;4.07;1.63;;;;;;;;;;5023043;28;20064;-86
2021/07/18 04:13:37;;;;;;;4.13;1.45;;;;;;;;;;5020766;28;20073;-86
2021/07/18 04:16:06;;;;;;;6.80;2.83;;;;;;;;;;5019239;28;20116;-87
2021/07/18 04:18:33;;;;;;;6.50;1.95;;;;;;;;;;5015465;28;20396;-87
2021/07/18 04:21:00;;;;;;;4.97;2.10;;;;;;;;;;5024293;28;20095;-85
2021/07/18 04:23:27;;;;;;;5.20;2.00;;;;;;;;;;5027359;28;21777;-87
2021/07/18 04:25:53;;;;;;;11.20;2.83;;;;;;;;;;4999156;28;20128;-87
2021/07/18 04:28:20;;;;;;;3.50;1.88;;;;;;;;;;5029713;28;20049;-84
2021/07/18 04:30:46;;;;;;;6.55;2.35;;;;;;;;;;5022095;28;20049;-86
2021/07/18 04:33:13;;;;;;;4.68;2.00;;;;;;;;;;5025519;28;20518;-83
2021/07/18 04:35:41;;;;;;;6.57;2.03;;;;;;;;;;5023359;28;20037;-87
2021/07/18 04:38:07;;;;;;;14.95;6.57;;;;;;;;;;5038013;28;20052;-86
2021/07/18 04:40:35;;;;;;;19.88;9.73;;;;;;;;;;5026251;28;20037;-80
2021/07/18 04:43:02;;;;;;;14.98;6.88;;;;;;;;;;5022866;28;20149;-86
2021/07/18 04:45:29;;;;;;;12.50;4.05;;;;;;;;;;5025272;28;20097;-83
2021/07/18 04:47:58;;;;;;;11.25;4.20;;;;;;;;;;5052419;28;20076;-87
2021/07/18 04:50:27;;;;;;;9.10;3.58;;;;;;;;;;5029143;28;20435;-85
2021/07/18 04:52:55;;;;;;;10.10;3.30;;;;;;;;;;5025752;28;20064;-84
2021/07/18 04:55:23;;;;;;;10.20;3.55;;;;;;;;;;5026075;28;20053;-84
2021/07/18 04:57:50;;;;;;;6.43;2.67;;;;;;;;;;5021389;28;20053;-85
2021/07/18 05:00:23;;;;;;;2.08;1.23;;;;;;;;;;5032315;28;20037;-85
2021/07/18 05:02:50;;;;;;;3.55;1.40;;;;;;;;;;5037018;28;20041;-79
2021/07/18 05:05:19;;;;;;;3.83;1.60;;;;;;;;;;5026188;28;20408;-86
2021/07/18 05:07:47;;;;;;;4.70;1.85;;;;;;;;;;5020533;28;20041;-89
2021/07/18 05:10:14;;;;;;;3.55;1.48;;;;;;;;;;5057968;28;20474;-87
2021/07/18 05:12:41;;;;;;;6.63;2.30;;;;;;;;;;5029558;28;20420;-86
2021/07/18 05:15:08;;;;;;;2.85;1.48;;;;;;;;;;5027620;28;20038;-80
2021/07/18 05:17:34;;;;;;;4.05;1.10;;;;;;;;;;5031400;28;20066;-87
2021/07/18 05:20:01;;;;;;;2.50;1.40;;;;;;;;;;5028662;28;20095;-85
2021/07/18 05:22:27;;;;;;;1.77;1.40;;;;;;;;;;5032784;28;20037;-85
2021/07/18 05:24:54;;;;;;;6.68;1.15;;;;;;;;;;5036553;28;20422;-86
2021/07/18 05:27:21;;;;;;;3.65;1.10;;;;;;;;;;5025655;28;20096;-86
2021/07/18 05:29:48;;;;;;;4.40;1.23;;;;;;;;;;5029391;28;20052;-88
2021/07/18 05:32:15;;;;;;;2.28;0.90;;;;;;;;;;5026702;28;20052;-83
2021/07/18 05:34:43;;;;;;;2.22;1.15;;;;;;;;;;5031666;28;20495;-88
2021/07/18 05:37:13;;;;;;;0.90;0.80;;;;;;;;;;5022640;28;20128;-83
2021/07/18 05:39:39;;;;;;;2.38;0.90;;;;;;;;;;5029056;28;20048;-83
2021/07/18 05:42:06;;;;;;;1.92;0.82;;;;;;;;;;5025990;28;20041;-86
2021/07/18 05:44:33;;;;;;;2.15;1.00;;;;;;;;;;5017986;28;20057;-86
2021/07/18 05:47:01;;;;;;;2.78;1.08;;;;;;;;;;5052581;28;20164;-89
2021/07/18 05:49:28;;;;;;;2.40;1.30;;;;;;;;;;5048050;28;20131;-89
2021/07/18 05:51:55;;;;;;;3.10;1.02;;;;;;;;;;5025628;28;20040;-83
2021/07/18 05:54:21;;;;;;;2.42;0.90;;;;;;;;;;5024870;28;20041;-80
2021/07/18 05:56:48;;;;;;;1.05;0.73;;;;;;;;;;5024505;28;20044;-84
2021/07/18 05:59:14;;;;;;;3.42;1.13;;;;;;;;;;5016227;28;20057;-82
2021/07/18 06:01:41;;;;;;;2.30;1.10;;;;;;;;;;5053963;28;20049;-84
2021/07/18 06:04:07;;;;;;;1.50;1.02;;;;;;;;;;5022196;28;20052;-83
2021/07/18 06:06:34;;;;;;;2.97;1.30;;;;;;;;;;4999145;28;20122;-83
2021/07/18 06:09:00;;;;;;;1.98;1.25;;;;;;;;;;5025814;28;20053;-84
2021/07/18 06:11:27;;;;;;;0.90;0.70;;;;;;;;;;5001116;28;20559;-84
2021/07/18 06:13:53;;;;;;;3.25;1.15;;;;;;;;;;5028040;28;20041;-85
2021/07/18 06:16:20;;;;;;;1.50;0.88;;;;;;;;;;5002733;28;20408;-84
2021/07/18 06:18:46;;;;;;;1.15;0.90;;;;;;;;;;5005334;28;20404;-83
2021/07/18 06:21:12;;;;;;;1.52;0.93;;;;;;;;;;5023148;28;20040;-83
2021/07/18 06:23:39;;;;;;;1.40;0.85;;;;;;;;;;4998059;28;20127;-85
2021/07/18 06:26:05;;;;;;;1.02;0.90;;;;;;;;;;5033933;28;20045;-90
2021/07/18 06:28:32;;;;;;;3.10;1.10;;;;;;;;;;5010497;28;20423;-89
2021/07/18 06:30:59;;;;;;;4.10;1.00;;;;;;;;;;5028278;28;20037;-88
2021/07/18 06:33:29;;;;;;;2.65;1.10;;;;;;;;;;5025950;28;20043;-87
2021/07/18 06:35:55;;;;;;;1.85;0.98;;;;;;;;;;5025346;28;20040;-87
2021/07/18 06:38:22;;;;;;;3.30;1.63;;;;;;;;;;5042201;28;20116;-87
2021/07/18 06:40:48;;;;;;;3.63;0.88;;;;;;;;;;5023046;28;20437;-85
2021/07/18 06:43:15;;;;;;;1.27;0.75;;;;;;;;;;5020193;28;20385;-85
2021/07/18 06:45:42;;;;;;;1.48;0.75;;;;;;;;;;5022370;28;20508;-84
2021/07/18 06:48:09;;;;;;;1.88;0.65;;;;;;;;;;5024655;28;20047;-86
2021/07/18 06:50:35;;;;;;;1.67;0.90;;;;;;;;;;5023140;28;20053;-86
2021/07/18 06:53:02;;;;;;;0.98;0.60;;;;;;;;;;5038952;28;20045;-86
2021/07/18 06:55:28;;;;;;;2.65;0.70;;;;;;;;;;5040283;28;20096;-87
2021/07/18 06:57:55;;;;;;;1.85;0.90;;;;;;;;;;5026741;28;20491;-88
2021/07/18 07:00:24;;;;;;;1.55;0.85;;;;;;;;;;5024668;28;20037;-88
2021/07/18 07:02:54;;;;;;;1.90;0.82;;;;;;;;;;5024295;28;20041;-89
2021/07/18 07:05:20;;;;;;;5.90;0.90;;;;;;;;;;5029636;28;20120;-88
2021/07/18 07:07:47;;;;;;;0.98;0.68;;;;;;;;;;5022975;28;20038;-89
2021/07/18 07:10:16;;;;;;;1.17;0.60;;;;;;;;;;5046675;28;20051;-81
2021/07/18 07:12:44;;;;;;;1.35;0.70;;;;;;;;;;5030316;28;20045;-86
2021/07/18 07:15:11;;;;;;;1.20;0.80;;;;;;;;;;5046470;28;20080;-81
2021/07/18 07:17:39;;;;;;;0.88;0.85;;;;;;;;;;5041920;28;20080;-87
2021/07/18 07:20:11;;;;;;;2.83;0.80;;;;;;;;;;5009276;28;20068;-88
2021/07/18 07:22:39;;;;;;;1.08;0.68;;;;;;;;;;5037687;28;20040;-84
2021/07/18 07:25:13;;;;;;;2.05;0.90;;;;;;;;;;5032261;28;20083;-88
2021/07/18 07:27:41;;;;;;;1.88;1.02;;;;;;;;;;5003701;28;20076;-82
2021/07/18 07:30:10;;;;;;;2.05;0.80;;;;;;;;;;5030279;28;20500;-86
2021/07/18 07:32:37;;;;;;;1.65;1.10;;;;;;;;;;5035541;28;20068;-85
2021/07/18 07:35:06;;;;;;;1.73;0.98;;;;;;;;;;5022448;28;20044;-85
2021/07/18 07:37:34;;;;;;;3.13;0.60;;;;;;;;;;5044590;28;20068;-86
2021/07/18 07:40:08;;;;;;;1.83;0.80;;;;;;;;;;5021035;28;20057;-86
2021/07/18 07:42:35;;;;;;;1.13;0.60;;;;;;;;;;4996824;28;20479;-85
2021/07/18 07:45:02;;;;;;;0.70;0.70;;;;;;;;;;5022158;28;20048;-86
2021/07/18 07:47:30;;;;;;;0.95;0.85;;;;;;;;;;5037103;28;20050;-86
2021/07/18 07:49:56;;;;;;;1.40;0.70;;;;;;;;;;5043473;28;20551;-85
2021/07/18 07:52:25;;;;;;;1.02;0.63;;;;;;;;;;5035165;28;20473;-83
2021/07/18 07:54:53;;;;;;;3.03;0.50;;;;;;;;;;5054717;28;20056;-83
2021/07/18 07:57:19;;;;;;;1.02;0.57;;;;;;;;;;5038553;28;20494;-86
2021/07/18 07:59:46;;;;;;;2.63;0.60;;;;;;;;;;5033749;28;20082;-86
2021/07/18 08:02:13;;;;;;;1.52;0.80;;;;;;;;;;5020549;28;20073;-88
2021/07/18 08:04:39;;;;;;;2.25;1.10;;;;;;;;;;5023555;28;20056;-87
2021/07/18 08:07:05;;;;;;;1.63;0.70;;;;;;;;;;5021939;28;20038;-88
2021/07/18 08:09:32;;;;;;;3.28;0.80;;;;;;;;;;5022460;28;20045;-88
2021/07/18 08:11:58;;;;;;;1.33;0.60;;;;;;;;;;5043708;28;20064;-87
2021/07/18 08:14:25;;;;;;;3.63;1.00;;;;;;;;;;5016319;28;20052;-86
2021/07/18 08:16:53;;;;;;;1.38;0.68;;;;;;;;;;5037280;28;20049;-82
2021/07/18 08:19:19;;;;;;;1.20;0.80;;;;;;;;;;5043900;28;20060;-85
2021/07/18 08:21:45;;;;;;;1.42;0.80;;;;;;;;;;5025367;28;20084;-86
2021/07/18 08:24:12;;;;;;;1.38;0.73;;;;;;;;;;5022948;28;20044;-87
2021/07/18 08:26:39;;;;;;;1.83;0.75;;;;;;;;;;5037364;28;20041;-85
2021/07/18 08:29:06;;;;;;;2.10;0.98;;;;;;;;;;5050337;28;20036;-85
2021/07/18 08:31:32;;;;;;;3.03;0.75;;;;;;;;;;5027798;28;20032;-84
2021/07/18 08:33:59;;;;;;;2.53;0.70;;;;;;;;;;5036697;28;20041;-83
2021/07/18 08:36:25;;;;;;;1.52;0.70;;;;;;;;;;5021442;28;20234;-83
2021/07/18 08:38:52;;;;;;;0.68;0.60;;;;;;;;;;5042264;28;20041;-83
2021/07/18 08:41:22;;;;;;;1.77;0.88;;;;;;;;;;5028250;28;20040;-85
2021/07/18 08:43:50;;;;;;;2.10;0.70;;;;;;;;;;5028297;28;20124;-83
2021/07/18 08:46:18;;;;;;;1.65;0.80;;;;;;;;;;5022785;28;20048;-83
2021/07/18 08:48:47;;;;;;;1.85;0.80;;;;;;;;;;5026870;28;20123;-82
2021/07/18 08:51:14;;;;;;;1.67;0.95;;;;;;;;;;5019927;28;20050;-83
2021/07/18 08:53:42;;;;;;;1.33;0.63;;;;;;;;;;5022394;28;20128;-82
2021/07/18 08:56:13;;;;;;;1.13;0.55;;;;;;;;;;5023457;28;20044;-83
2021/07/18 08:58:40;;;;;;;2.42;0.73;;;;;;;;;;5027739;28;20056;-84
2021/07/18 09:01:06;;;;;;;3.40;0.85;;;;;;;;;;5039609;28;20092;-85
2021/07/18 09:03:35;;;;;;;5.10;0.90;;;;;;;;;;5067440;28;20037;-83
2021/07/18 09:06:09;;;;;;;1.45;0.57;;;;;;;;;;5040758;28;20048;-86
2021/07/18 09:08:45;;;;;;;2.08;1.08;;;;;;;;;;5025665;28;20049;-83
2021/07/18 09:11:22;;;;;;;1.92;0.70;;;;;;;;;;5045662;28;20072;-87
2021/07/18 09:14:02;;;;;;;0.68;0.55;;;;;;;;;;5034686;28;20065;-80
2021/07/18 09:16:32;;;;;;;0.80;0.40;;;;;;;;;;5045234;28;20483;-84
2021/07/18 09:19:24;;;;;;;3.00;0.70;;;;;;;;;;5044404;28;20041;-82
2021/07/18 09:22:19;;;;;;;1.63;0.38;;;;;;;;;;5015594;28;20084;-82
2021/07/18 09:24:47;;;;;;;1.45;0.80;;;;;;;;;;5026742;28;20147;-87
2021/07/18 09:27:18;;;;;;;1.98;0.63;;;;;;;;;;5047054;28;20037;-89
2021/07/18 09:29:47;;;;;;;1.20;0.40;;;;;;;;;;5016708;28;20049;-81
2021/07/18 09:32:24;;;;;;;1.95;0.70;;;;;;;;;;5054658;28;20129;-86
2021/07/18 09:34:51;;;;;;;4.75;0.80;;;;;;;;;;5047351;28;20063;-88
2021/07/18 09:37:24;;;;;;;2.33;0.70;;;;;;;;;;5027991;28;20125;-86
2021/07/18 09:40:05;;;;;;;1.63;0.93;;;;;;;;;;5022714;28;20041;-84
2021/07/18 09:42:42;;;;;;;0.60;0.60;;;;;;;;;;5032436;28;20422;-84
2021/07/18 09:45:16;;;;;;;1.17;0.50;;;;;;;;;;5027515;28;20451;-82
2021/07/18 09:48:05;;;;;;;0.80;0.60;;;;;;;;;;5028035;28;20054;-86
2021/07/18 09:50:40;;;;;;;1.33;0.70;;;;;;;;;;5025326;28;20042;-87
2021/07/18 09:53:17;;;;;;;1.48;0.73;;;;;;;;;;5025448;28;20053;-81
2021/07/18 09:56:00;;;;;;;3.00;0.70;;;;;;;;;;5026492;28;20126;-84
2021/07/18 09:58:31;;;;;;;2.28;0.82;;;;;;;;;;5029293;28;20508;-83
2021/07/18 10:00:59;;;;;;;0.70;0.70;;;;;;;;;;5038270;28;20049;-87
2021/07/18 10:03:28;;;;;;;1.42;0.77;;;;;;;;;;5024944;28;20037;-87
2021/07/18 10:06:09;;;;;;;6.10;0.85;;;;;;;;;;5023659;28;20124;-84
2021/07/18 10:08:41;;;;;;;2.78;0.70;;;;;;;;;;5023604;28;20048;-84
2021/07/18 10:11:13;;;;;;;2.00;0.70;;;;;;;;;;5022167;28;20046;-83
2021/07/18 10:13:43;;;;;;;1.17;0.95;;;;;;;;;;5024280;28;20052;-84
2021/07/18 10:16:10;;;;;;;3.10;0.55;;;;;;;;;;5023472;28;20411;-86
2021/07/18 10:18:45;;;;;;;1.80;1.00;;;;;;;;;;5019530;28;20443;-85
2021/07/18 10:21:14;;;;;;;2.80;1.10;;;;;;;;;;5023643;28;20044;-83
2021/07/18 10:23:43;;;;;;;2.17;1.17;;;;;;;;;;5036938;28;20437;-86
2021/07/18 10:26:14;;;;;;;;;;;;;;;;;;5013692;28;20045;-85
2021/07/18 10:28:41;;;;;;;4.28;1.45;;;;;;;;;;5039571;28;20410;-85
2021/07/18 10:31:29;;;;;;;3.40;1.48;;;;;;;;;;5052973;28;20037;-85
2021/07/18 10:33:57;;;;;;;2.88;1.35;;;;;;;;;;5019370;28;20083;-85
2021/07/18 10:36:26;;;;;;;5.40;1.40;;;;;;;;;;5025436;28;20483;-84
2021/07/18 10:38:53;;;;;;;2.40;1.30;;;;;;;;;;5023226;28;20448;-86
2021/07/18 10:41:44;;;;;;;4.78;1.80;;;;;;;;;;5025555;28;20060;-86
2021/07/18 10:44:18;;;;;;;3.33;1.75;;;;;;;;;;5021816;28;20087;-84
2021/07/18 10:46:45;;;;;;;4.93;1.90;;;;;;;;;;5024611;28;20032;-87
2021/07/18 10:49:14;;;;;;;6.07;1.92;;;;;;;;;;5045457;28;20071;-86
2021/07/18 10:51:43;;;;;;;6.03;2.17;;;;;;;;;;5020294;28;20053;-85
2021/07/18 10:54:21;;;;;;;6.75;2.20;;;;;;;;;;5021623;28;20061;-87
2021/07/18 10:56:51;;;;;;;5.78;2.53;;;;;;;;;;5004593;28;20107;-86
2021/07/18 10:59:34;;;;;;;6.78;2.05;;;;;;;;;;5021813;28;20048;-88
2021/07/18 11:02:13;;;;;;;4.60;2.00;;;;;;;;;;5023162;28;20094;-85
2021/07/18 11:04:42;;;;;;;6.32;2.00;;;;;;;;;;5052330;28;20456;-84
2021/07/18 11:07:21;;;;;;;7.03;2.80;;;;;;;;;;5026298;28;20045;-87
2021/07/18 11:09:54;;;;;;;7.53;3.33;;;;;;;;;;5023819;28;20120;-89
2021/07/18 11:12:32;;;;;;;9.48;5.03;;;;;;;;;;5038858;28;20090;-86
2021/07/18 11:15:20;;;;;;;8.18;5.00;;;;;;;;;;5032271;28;20080;-86
2021/07/18 11:18:06;;;;;;;7.15;4.38;;;;;;;;;;5006013;28;20042;-88
2021/07/18 11:20:39;;;;;;;6.22;3.05;;;;;;;;;;5006485;28;20046;-85
2021/07/18 11:23:08;;;;;;;2.83;1.27;;;;;;;;;;5013681;28;20048;-82
2021/07/18 11:25:42;;;;;;;5.20;1.35;;;;;;;;;;5015399;28;20029;-84
2021/07/18 11:31:12;;;;;;;4.88;1.00;;;;;;;;;;5030850;28;20037;-84
2021/07/18 11:33:41;;;;;;;4.35;1.15;;;;;;;;;;5061406;28;20048;-82
2021/07/18 11:36:09;;;;;;;5.38;1.27;;;;;;;;;;5064261;28;20048;-83
2021/07/18 11:38:36;;;;;;;4.22;1.42;;;;;;;;;;5046142;28;20050;-83
2021/07/18 11:41:17;;;;;;;3.30;1.38;;;;;;;;;;5019030;28;20488;-87
2021/07/18 11:43:51;;;;;;;;;;;;;;;;;;5022732;28;20048;-83
2021/07/18 11:46:20;;;;;;;6.72;1.50;;;;;;;;;;5043901;28;19920;-84
2021/07/18 11:48:49;;;;;;;7.97;1.80;;;;;;;;;;5038414;28;20061;-86
2021/07/18 11:51:22;;;;;;;6.43;1.95;;;;;;;;;;5012547;28;20046;-85
2021/07/18 11:53:51;;;;;;;5.40;1.77;;;;;;;;;;5016151;28;20044;-86
2021/07/18 11:56:27;;;;;;;6.45;1.88;;;;;;;;;;5023269;28;20037;-86
2021/07/18 11:59:03;;;;;;;6.57;1.52;;;;;;;;;;5004085;28;20071;-85
2021/07/18 12:01:34;;;;;;;6.43;1.30;;;;;;;;;;5011766;28;20047;-88
2021/07/18 12:04:01;;;;;;;6.00;1.70;;;;;;;;;;5032836;28;20060;-89
2021/07/18 12:06:31;;;;;;;5.38;1.13;;;;;;;;;;5017917;28;20575;-84
2021/07/18 12:09:22;;;;;;;10.80;1.10;;;;;;;;;;4998954;28;20060;-86
2021/07/18 12:11:53;;;;;;;4.20;1.20;;;;;;;;;;4993730;28;20043;-87
2021/07/18 12:14:21;;;;;;;5.75;1.25;;;;;;;;;;5015456;28;20047;-82
2021/07/18 12:16:52;;;;;;;3.40;1.05;;;;;;;;;;5014499;28;20045;-88
2021/07/18 12:19:25;;;;;;;7.57;1.20;;;;;;;;;;5003224;28;20068;-86
2021/07/18 12:21:53;;;;;;;3.25;0.63;;;;;;;;;;5016489;28;20060;-85
2021/07/18 12:24:22;;;;;;;;;;;;;;;;;;5007912;28;20041;-87
2021/07/18 12:27:24;;;;;;;5.28;0.75;;;;;;;;;;5026068;28;19917;-86
2021/07/18 12:29:52;;;;;;;9.25;1.17;;;;;;;;;;4984068;28;20041;-86
2021/07/18 12:32:31;;;;;;;1.85;0.80;;;;;;;;;;5022849;28;20065;-88
2021/07/18 12:34:59;;;;;;;5.97;1.00;;;;;;;;;;4982787;28;20507;-89
2021/07/18 12:37:37;;;;;;;5.00;1.15;;;;;;;;;;5021343;28;20029;-90
2021/07/18 12:40:06;;;;;;;5.72;1.17;;;;;;;;;;5005347;28;20053;-84
2021/07/18 12:42:43;;;;;;;7.50;1.40;;;;;;;;;;5006179;28;20038;-86
2021/07/18 12:45:20;;;;;;;7.50;1.65;;;;;;;;;;5013596;28;20037;-86
2021/07/18 12:47:59;;;;;;;3.85;1.00;;;;;;;;;;4999675;28;20112;-81
2021/07/18 12:50:31;;;;;;;6.78;1.00;;;;;;;;;;4982037;28;20037;-86
2021/07/18 12:53:02;;;;;;;1.90;1.00;;;;;;;;;;5004057;28;20040;-88
2021/07/18 12:55:41;;;;;;;6.38;1.75;;;;;;;;;;4997085;28;20529;-85
2021/07/18 12:58:37;;;;;;;3.58;1.38;;;;;;;;;;5024852;28;20040;-84
2021/07/18 13:01:13;;;;;;;9.13;1.45;;;;;;;;;;5001909;28;20034;-85
2021/07/18 13:03:46;;;;;;;12.05;1.20;;;;;;;;;;5003228;28;20394;-84
2021/07/18 13:06:16;;;;;;;5.13;1.50;;;;;;;;;;5010051;28;20045;-83
2021/07/18 13:08:50;;;;;;;5.93;1.20;;;;;;;;;;5010090;28;20073;-84
2021/07/18 13:11:41;;;;;;;7.60;1.75;;;;;;;;;;4997565;28;20612;-83
2021/07/18 13:14:31;;;;;;;9.27;1.20;;;;;;;;;;5028246;28;20421;-86
2021/07/18 13:17:04;;;;;;;6.05;1.10;;;;;;;;;;5019969;28;20516;-83
2021/07/18 13:19:31;;;;;;;9.70;1.50;;;;;;;;;;5023935;28;20529;-88
2021/07/18 13:22:05;;;;;;;9.32;1.75;;;;;;;;;;5008382;28;20429;-86
2021/07/18 13:24:53;;;;;;;8.10;1.30;;;;;;;;;;5047429;28;20045;-84
2021/07/18 13:27:22;;;;;;;3.17;0.98;;;;;;;;;;5016462;28;20042;-87
2021/07/18 13:29:58;;;;;;;7.68;1.15;;;;;;;;;;4987854;28;20122;-88
2021/07/18 13:32:25;;;;;;;7.13;1.60;;;;;;;;;;5000479;28;20125;-87
2021/07/18 13:35:01;;;;;;;4.30;0.85;;;;;;;;;;5008711;28;20097;-80
2021/07/18 13:37:56;;;;;;;7.68;1.30;;;;;;;;;;5007234;28;20124;-86
2021/07/18 13:40:26;;;;;;;5.80;1.30;;;;;;;;;;4981285;28;20108;-83
2021/07/18 13:43:14;;;;;;;6.22;1.80;;;;;;;;;;5008590;28;20069;-88
2021/07/18 13:45:46;;;;;;;6.18;1.98;;;;;;;;;;4974695;28;20061;-87
2021/07/18 13:48:19;;;;;;;7.65;1.00;;;;;;;;;;5005253;28;20046;-87
2021/07/18 13:50:47;;;;;;;5.97;1.00;;;;;;;;;;5017306;28;20065;-84
2021/07/18 13:53:13;;;;;;;4.93;0.70;;;;;;;;;;4999369;28;20130;-84
2021/07/18 13:55:43;;;;;;;4.82;1.05;;;;;;;;;;5000955;28;20054;-84
2021/07/18 13:58:11;;;;;;;7.95;1.42;;;;;;;;;;5000184;28;20092;-81
2021/07/18 14:00:41;;;;;;;5.38;2.17;;;;;;;;;;5004126;28;20034;-87
2021/07/18 14:03:11;;;;;;;7.57;1.65;;;;;;;;;;5019248;28;20049;-86
2021/07/18 14:05:38;;;;;;;6.65;1.58;;;;;;;;;;4999219;28;20038;-86
2021/07/18 14:08:08;;;;;;;7.55;1.42;;;;;;;;;;5028093;28;20550;-86
2021/07/18 14:10:39;;;;;;;2.28;1.00;;;;;;;;;;5020967;28;20507;-87
2021/07/18 14:13:06;;;;;;;5.13;1.20;;;;;;;;;;5015487;28;20596;-80
2021/07/18 14:15:34;;;;;;;6.20;1.83;;;;;;;;;;4991640;28;20046;-86
2021/07/18 14:18:04;;;;;;;4.00;1.55;;;;;;;;;;4999490;28;20192;-79
2021/07/18 14:20:32;;;;;;;5.38;1.30;;;;;;;;;;4996046;28;20045;-87
2021/07/18 14:22:59;;;;;;;3.17;1.02;;;;;;;;;;4999643;28;20041;-82
2021/07/18 14:25:27;;;;;;;5.35;1.75;;;;;;;;;;4979137;28;20077;-80
2021/07/18 14:27:57;;;;;;;7.93;1.17;;;;;;;;;;5007775;28;20712;-84
2021/07/18 14:30:27;;;;;;;5.45;2.15;;;;;;;;;;4999211;28;20571;-84
2021/07/18 14:32:53;;;;;;;4.50;1.00;;;;;;;;;;5010297;28;20041;-87
2021/07/18 14:35:21;;;;;;;5.05;1.50;;;;;;;;;;5023636;28;20041;-82
2021/07/18 14:37:48;;;;;;;7.97;1.60;;;;;;;;;;5016392;28;20049;-77
2021/07/18 14:40:17;;;;;;;5.28;1.23;;;;;;;;;;5022656;28;20411;-78
2021/07/18 14:42:46;;;;;;;10.98;1.70;;;;;;;;;;5023315;28;20121;-79
2021/07/18 14:45:14;;;;;;;5.43;1.27;;;;;;;;;;5016011;28;20053;-78
2021/07/18 14:47:42;;;;;;;6.57;1.83;;;;;;;;;;5032685;28;20129;-78
2021/07/18 14:50:10;;;;;;;6.78;2.30;;;;;;;;;;5021961;28;20044;-78
2021/07/18 14:52:38;;;;;;;9.20;2.22;;;;;;;;;;5034136;28;20045;-78
2021/07/18 14:55:06;;;;;;;5.25;1.45;;;;;;;;;;5027954;28;20083;-78
2021/07/18 14:57:34;;;;;;;7.18;1.40;;;;;;;;;;5018792;28;20045;-79